Time;durP1;ratioP1;P1;durP2;ratioP2;P2;SDS_P1;SDS_P2;PMS_P1;PMS_P2;Temp;Humidity;BMP_temperature;BMP_pressure;BME280_temperature;BME280_humidity;BME280_pressure;Samples;Min_cycle;Max_cycle;Signal;HPM_P1;HPM_P2
2021/05/10 00:01:32;;;;;;;;;;;;;;;-142.75;67.10;75594.06;5042427;28;19921;-82
2021/05/10 00:03:57;;;;;;;;;;;;;;;-142.75;67.06;75599.94;5041091;28;20590;-83
2021/05/10 00:06:22;;;;;;;;;;;;;;;-142.75;67.26;75592.09;5043224;28;19924;-83
2021/05/10 00:08:48;;;;;;;;;;;;;;;-142.75;67.29;75594.06;5043038;28;19920;-83
2021/05/10 00:11:16;;;;;;;;;;;;;;;-142.75;67.40;75594.06;5043041;28;20412;-83
2021/05/10 00:13:46;;;;;;;;;;;;;;;-142.75;67.46;75599.94;5061563;28;20074;-83
2021/05/10 00:16:11;;;;;;;;;;;;;;;-142.75;67.38;75607.81;5052586;28;19916;-84
2021/05/10 00:18:36;;;;;;;;;;;;;;;-142.75;66.79;75603.88;5064762;28;19923;-84
2021/05/10 00:21:03;;;;;;;;;;;;;;;-142.75;66.61;75599.94;5061403;28;19917;-83
2021/05/10 00:23:28;;;;;;;;;;;;;;;-142.75;66.77;75605.84;5050196;28;19924;-82
2021/05/10 00:25:53;;;;;;;;;;;;;;;-142.75;66.90;75605.84;5051857;28;19923;-82
2021/05/10 00:28:18;;;;;;;;;;;;;;;-142.75;67.04;75601.91;5070542;28;19917;-80
2021/05/10 00:30:43;;;;;;;;;;;;;;;-142.75;67.04;75607.81;5070592;28;19999;-82
2021/05/10 00:33:09;;;;;;;;;;;;;;;-142.75;67.25;75613.72;5054452;28;19917;-81
2021/05/10 00:35:34;;;;;;;;;;;;;;;-142.75;66.81;75590.13;5052075;28;20089;-81
2021/05/10 00:37:59;;;;;;;;;;;;;;;-142.75;67.07;75611.75;5050044;28;20342;-81
2021/05/10 00:40:27;;;;;;;;;;;;;;;-142.75;67.10;75617.66;5049324;28;20279;-80
2021/05/10 00:42:52;;;;;;;;;;;;;;;-142.75;66.68;75629.47;5054621;28;19998;-82
2021/05/10 00:45:17;;;;;;;;;;;;;;;-142.75;66.45;75613.72;5069284;28;19920;-80
2021/05/10 00:47:43;;;;;;;;;;;;;;;-142.75;66.14;75597.97;5056319;28;19987;-80
2021/05/10 00:50:09;;;;;;;;;;;;;;;-142.75;65.96;75601.91;5071076;28;19927;-82
2021/05/10 00:52:34;;;;;;;;;;;;;;;-142.75;66.14;75609.78;5067485;28;19939;-80
2021/05/10 00:54:59;;;;;;;;;;;;;;;-142.75;66.50;75615.69;5054872;28;19960;-80
2021/05/10 00:57:29;;;;;;;;;;;;;;;-142.75;66.58;75621.59;5064786;28;19943;-80
2021/05/10 00:59:55;;;;;;;;;;;;;;;-142.75;66.51;75619.63;5053365;28;19916;-79
2021/05/10 01:02:20;;;;;;;;;;;;;;;-142.75;66.48;75611.75;5066350;28;20031;-81
2021/05/10 01:04:45;;;;;;;;;;;;;;;-142.75;66.65;75613.72;5065648;28;19916;-79
2021/05/10 01:07:12;;;;;;;;;;;;;;;-142.75;66.62;75621.59;5064182;28;19917;-81
2021/05/10 01:09:37;;;;;;;;;;;;;;;-142.75;66.84;75619.63;5053360;28;19972;-81
2021/05/10 01:12:02;;;;;;;;;;;;;;;-142.75;66.90;75627.50;5069709;28;19947;-80
2021/05/10 01:14:28;;;;;;;;;;;;;;;-142.75;66.87;75621.59;5052986;28;20015;-82
2021/05/10 01:16:53;;;;;;;;;;;;;;;-142.75;66.79;75607.81;5072401;28;20054;-80
2021/05/10 01:19:19;;;;;;;;;;;;;;;-142.75;67.02;75613.72;5066067;28;19916;-81
2021/05/10 01:21:47;;;;;;;;;;;;;;;-142.75;66.78;75617.66;5065559;28;19917;-81
2021/05/10 01:24:13;;;;;;;;;;;;;;;-142.75;66.64;75613.72;5046470;28;19917;-80
2021/05/10 01:26:38;;;;;;;;;;;;;;;-142.75;66.48;75605.84;5060060;28;19920;-81
2021/05/10 01:29:04;;;;;;;;;;;;;;;-142.75;66.09;75599.94;5045960;28;19931;-78
2021/05/10 01:31:29;;;;;;;;;;;;;;;-142.75;66.09;75596.00;5045365;28;19964;-81
2021/05/10 01:33:54;;;;;;;;;;;;;;;-142.75;66.05;75580.28;5042444;28;20019;-80
2021/05/10 01:36:19;;;;;;;;;;;;;;;-142.75;66.32;75586.19;5050105;28;19917;-80
2021/05/10 01:38:44;;;;;;;;;;;;;;;-142.75;66.36;75601.91;5066961;28;20370;-80
2021/05/10 01:41:10;;;;;;;;;;;;;;;-142.75;66.44;75607.81;5050863;28;20267;-82
2021/05/10 01:43:35;;;;;;;;;;;;;;;-142.75;66.19;75586.19;5059494;28;20332;-79
2021/05/10 01:46:00;;;;;;;;;;;;;;;-142.75;66.71;75596.00;5073267;28;19917;-79
2021/05/10 01:48:26;;;;;;;;;;;;;;;-142.75;66.77;75597.97;5069272;28;19923;-80
2021/05/10 01:50:51;;;;;;;;;;;;;;;-142.75;66.82;75603.88;5068179;28;20297;-81
2021/05/10 01:53:17;;;;;;;;;;;;;;;-142.75;66.59;75597.97;5041140;28;20030;-81
2021/05/10 01:55:42;;;;;;;;;;;;;;;-142.75;66.42;75586.19;5064456;28;19920;-80
2021/05/10 01:58:08;;;;;;;;;;;;;;;-142.75;66.58;75588.16;5045815;28;19999;-80
2021/05/10 02:00:52;;;;;;;;;;;;;;;-142.75;65.98;75566.50;5064707;28;19931;-81
2021/05/10 02:03:18;;;;;;;;;;;;;;;-142.75;65.56;75560.59;5047921;28;19917;-81
2021/05/10 02:05:44;;;;;;;;;;;;;;;-142.75;65.21;75558.63;5041126;28;20011;-79
2021/05/10 02:08:10;;;;;;;;;;;;;;;-142.75;64.83;75546.81;5063798;28;20433;-79
2021/05/10 02:10:40;;;;;;;;;;;;;;;-142.75;64.89;75544.84;5057961;28;19916;-78
2021/05/10 02:13:05;;;;;;;;;;;;;;;-142.75;65.11;75546.81;5046765;28;19917;-77
2021/05/10 02:15:31;;;;;;;;;;;;;;;-142.75;65.26;75542.88;5094657;23;19945;-80
2021/05/10 02:17:56;;;;;;;;;;;;;;;-142.75;65.23;75533.03;5111709;28;20297;-81
2021/05/10 02:20:22;;;;;;;;;;;;;;;-142.75;65.19;75538.94;5103152;28;19916;-79
2021/05/10 02:22:58;;;;;;;;;;;;;;;-142.75;65.67;75556.66;5108696;28;19983;-77
2021/05/10 02:25:24;;;;;;;;;;;;;;;-142.75;65.73;75554.69;5065821;28;20022;-78
2021/05/10 02:27:50;;;;;;;;;;;;;;;-142.75;65.59;75550.75;5074008;28;20291;-77
2021/05/10 02:30:16;;;;;;;;;;;;;;;-142.75;65.65;75550.75;5082403;28;19916;-77
2021/05/10 02:32:42;;;;;;;;;;;;;;;-142.75;65.47;75550.75;5068628;28;20513;-78
2021/05/10 02:35:07;;;;;;;;;;;;;;;-142.75;65.53;75560.59;5091246;28;19920;-80
2021/05/10 02:37:32;;;;;;;;;;;;;;;-142.75;65.15;75558.63;5064418;28;20302;-78
2021/05/10 02:39:57;;;;;;;;;;;;;;;-142.75;65.22;75554.69;5069940;28;19918;-80
2021/05/10 02:42:23;;;;;;;;;;;;;;;-142.75;65.25;75560.59;5068010;28;19965;-78
2021/05/10 02:44:48;;;;;;;;;;;;;;;-142.75;65.93;75574.38;5090582;28;20365;-79
2021/05/10 02:47:13;;;;;;;;;;;;;;;-142.75;65.87;75570.44;5055520;28;19925;-78
2021/05/10 02:49:38;;;;;;;;;;;;;;;-142.75;65.62;75572.41;5061520;28;19978;-78
2021/05/10 02:52:03;;;;;;;;;;;;;;;-142.75;65.69;75574.38;5091191;28;19924;-79
2021/05/10 02:54:29;;;;;;;;;;;;;;;-142.75;65.93;75570.44;5055609;28;19916;-78
2021/05/10 02:56:54;;;;;;;;;;;;;;;-142.75;65.57;75570.44;5067830;28;19920;-77
2021/05/10 02:59:19;;;;;;;;;;;;;;;-142.75;65.46;75564.53;5084177;28;19990;-78
2021/05/10 03:01:44;;;;;;;;;;;;;;;-142.75;65.17;75560.59;5059638;28;21968;-77
2021/05/10 03:04:09;;;;;;;;;;;;;;;-142.75;64.86;75546.81;5068045;28;19939;-80
2021/05/10 03:06:35;;;;;;;;;;;;;;;-142.75;65.00;75546.81;5068326;28;19923;-76
2021/05/10 03:09:00;;;;;;;;;;;;;;;-142.75;64.91;75538.94;5072227;28;19917;-77
2021/05/10 03:11:25;;;;;;;;;;;;;;;-142.75;64.47;75527.13;5056774;28;19962;-77
2021/05/10 03:13:50;;;;;;;;;;;;;;;-142.75;64.57;75533.03;5063653;28;19916;-78
2021/05/10 03:16:15;;;;;;;;;;;;;;;-142.75;64.08;75523.19;5058522;28;19917;-77
2021/05/10 03:18:41;;;;;;;;;;;;;;;-142.75;64.06;75515.31;5082346;28;19969;-77
2021/05/10 03:21:06;;;;;;;;;;;;;;;-142.75;64.02;75519.25;5076767;28;19916;-78
2021/05/10 03:23:31;;;;;;;;;;;;;;;-142.75;64.25;75521.22;5082894;28;19916;-78
2021/05/10 03:25:56;;;;;;;;;;;;;;;-142.75;64.52;75525.16;5051628;28;19917;-78
2021/05/10 03:28:22;;;;;;;;;;;;;;;-142.75;64.29;75515.31;5072411;28;19917;-78
2021/05/10 03:30:47;;;;;;;;;;;;;;;-142.75;64.54;75513.38;5084612;28;20386;-77
2021/05/10 03:33:13;;;;;;;;;;;;;;;-142.75;64.72;75519.25;5070494;28;19978;-77
2021/05/10 03:35:38;;;;;;;;;;;;;;;-142.75;64.84;75519.25;5085472;28;19970;-77
2021/05/10 03:38:04;;;;;;;;;;;;;;;-142.75;64.91;75515.31;5083538;28;20404;-76
2021/05/10 03:40:29;;;;;;;;;;;;;;;-142.75;64.56;75507.47;5056067;28;19942;-77
2021/05/10 03:42:54;;;;;;;;;;;;;;;-142.75;64.96;75519.25;5053771;28;19917;-79
2021/05/10 03:45:19;;;;;;;;;;;;;;;-142.75;65.09;75527.13;5051579;28;20038;-76
2021/05/10 03:47:45;;;;;;;;;;;;;;;-142.75;65.43;75536.97;5051648;28;19947;-78
2021/05/10 03:50:11;;;;;;;;;;;;;;;-142.75;65.49;75546.81;5078192;28;19923;-78
2021/05/10 03:52:36;;;;;;;;;;;;;;;-142.75;65.32;75550.75;5073140;28;20395;-78
2021/05/10 03:55:02;;;;;;;;;;;;;;;-142.75;64.17;75529.09;5076377;28;20011;-77
2021/05/10 03:57:28;;;;;;;;;;;;;;;-142.75;63.82;75517.28;5060714;28;19915;-76
2021/05/10 03:59:53;;;;;;;;;;;;;;;-142.75;63.82;75515.31;5085432;28;20278;-78
2021/05/10 04:02:19;;;;;;;;;;;;;;;-142.75;63.11;75505.50;5085256;28;19916;-76
2021/05/10 04:05:15;;;;;;;;;;;;;;;-142.75;61.29;75481.88;5058717;28;19923;-78
2021/05/10 04:15:33;;;;;;;;;;;;;;;-142.75;60.69;75472.03;5097088;28;19969;-77
2021/05/10 04:17:59;;;;;;;;;;;;;;;-142.75;60.35;75491.72;5080047;28;20344;-79
2021/05/10 04:20:24;;;;;;;;;;;;;;;-142.75;60.69;75491.72;5083919;28;20385;-79
2021/05/10 04:22:49;;;;;;;;;;;;;;;-142.75;60.43;75483.84;5086611;28;19923;-78
2021/05/10 04:25:14;;;;;;;;;;;;;;;-142.75;60.17;75474.00;5091020;28;19916;-80
2021/05/10 04:27:40;;;;;;;;;;;;;;;-142.75;60.83;75495.66;5075133;28;19923;-79
2021/05/10 04:30:06;;;;;;;;;;;;;;;-142.75;60.85;75505.50;5090574;28;19920;-80
2021/05/10 04:32:31;;;;;;;;;;;;;;;-142.75;61.99;75501.56;5082386;28;19935;-80
2021/05/10 04:34:56;;;;;;;;;;;;;;;-142.75;63.78;75558.63;5091449;28;19969;-81
2021/05/10 04:37:21;;;;;;;;;;;;;;;-142.75;64.96;75586.19;5084603;28;19970;-80
2021/05/10 04:39:46;;;;;;;;;;;;;;;-142.75;66.79;75623.56;5085329;28;20011;-80
2021/05/10 04:42:11;;;;;;;;;;;;;;;-142.75;67.72;75657.03;5089545;28;19920;-78
2021/05/10 04:44:37;;;;;;;;;;;;;;;-142.75;68.11;75666.88;5090009;28;19916;-80
2021/05/10 04:47:02;;;;;;;;;;;;;;;-142.75;68.65;75674.72;5082237;28;19916;-81
2021/05/10 04:49:27;;;;;;;;;;;;;;;-142.75;68.81;75668.84;5086280;28;19916;-82
2021/05/10 04:51:52;;;;;;;;;;;;;;;-142.75;69.12;75664.91;5081260;28;19924;-80
2021/05/10 04:54:18;;;;;;;;;;;;;;;-142.75;69.07;75668.84;5083929;28;19916;-78
2021/05/10 04:56:43;;;;;;;;;;;;;;;-142.75;69.18;75660.97;5082035;28;19925;-81
2021/05/10 04:59:08;;;;;;;;;;;;;;;-142.75;69.14;75662.94;5069023;28;19916;-79
2021/05/10 05:01:33;;;;;;;;;;;;;;;-142.75;69.13;75670.81;5082499;28;19962;-80
2021/05/10 05:03:58;;;;;;;;;;;;;;;-142.75;69.19;75692.44;5083282;28;19924;-80
2021/05/10 05:06:23;;;;;;;;;;;;;;;-142.75;69.41;75696.38;5083421;28;19938;-80
2021/05/10 05:08:49;;;;;;;;;;;;;;;-142.75;69.40;75672.78;5078843;28;19972;-80
2021/05/10 05:11:14;;;;;;;;;;;;;;;-142.75;69.62;75692.44;5067154;28;19916;-79
2021/05/10 05:13:39;;;;;;;;;;;;;;;-142.75;69.68;75727.88;5088508;28;19916;-79
2021/05/10 05:16:04;;;;;;;;;;;;;;;-142.75;69.80;75749.53;5085446;28;19916;-79
2021/05/10 05:18:29;;;;;;;;;;;;;;;-142.75;69.74;75767.22;5082566;28;19924;-77
2021/05/10 05:20:55;;;;;;;;;;;;;;;-142.75;69.88;75763.28;5085418;28;20361;-78
2021/05/10 05:23:24;;;;;;;;;;;;;;;-142.75;69.63;75786.91;5069921;28;19916;-76
2021/05/10 05:25:56;;;;;;;;;;;;;;;-142.75;69.74;75802.66;5082688;28;19917;-78
2021/05/10 05:28:21;;;;;;;;;;;;;;;-142.75;69.53;75828.25;5079967;28;19924;-78
2021/05/10 05:30:47;;;;;;;;;;;;;;;-142.75;69.62;75838.09;5083178;28;20298;-78
2021/05/10 05:33:12;;;;;;;;;;;;;;;-142.75;69.74;75832.19;5084931;28;19932;-78
2021/05/10 05:35:37;;;;;;;;;;;;;;;-142.75;69.79;75849.91;5085070;28;19921;-79
2021/05/10 05:38:04;;;;;;;;;;;;;;;-142.75;69.71;75855.81;5086563;28;19920;-77
2021/05/10 05:40:29;;;;;;;;;;;;;;;-142.75;69.53;75855.81;5082589;28;20378;-81
2021/05/10 05:42:54;;;;;;;;;;;;;;;-142.75;69.76;75865.63;5088170;28;19961;-78
2021/05/10 05:45:20;;;;;;;;;;;;;;;-142.75;69.50;75869.56;5073523;28;19916;-77
2021/05/10 05:47:45;;;;;;;;;;;;;;;-142.75;69.72;75861.69;5084817;28;19924;-78
2021/05/10 05:50:10;;;;;;;;;;;;;;;-142.75;69.59;75853.84;5081080;28;19916;-77
2021/05/10 05:52:35;;;;;;;;;;;;;;;-142.75;69.65;75840.06;5075404;28;20305;-78
2021/05/10 05:55:00;;;;;;;;;;;;;;;-142.75;69.44;75836.13;5087192;28;19916;-79
2021/05/10 05:57:26;;;;;;;;;;;;;;;-142.75;69.13;75849.91;5063109;28;19916;-78
2021/05/10 05:59:51;;;;;;;;;;;;;;;-142.75;69.20;75851.88;5086377;28;19916;-79
2021/05/10 06:02:16;;;;;;;;;;;;;;;-142.75;69.28;75857.78;5077037;28;20443;-78
2021/05/10 06:04:41;;;;;;;;;;;;;;;-142.75;68.92;75879.41;5082922;28;19916;-78
2021/05/10 06:07:06;;;;;;;;;;;;;;;-142.75;69.31;75867.59;5060338;28;19970;-78
2021/05/10 06:09:32;;;;;;;;;;;;;;;-142.75;68.90;75859.72;5083449;28;21628;-80
2021/05/10 06:11:57;;;;;;;;;;;;;;;-142.75;68.49;75869.56;5076272;28;19967;-78
2021/05/10 06:14:22;;;;;;;;;;;;;;;-142.75;68.61;75853.84;5070080;28;20023;-79
2021/05/10 06:16:48;;;;;;;;;;;;;;;-142.75;68.36;75828.25;5065492;28;19920;-77
2021/05/10 06:19:13;;;;;;;;;;;;;;;-142.75;67.78;75796.75;5062348;28;20339;-79
2021/05/10 06:21:41;;;;;;;;;;;;;;;-142.75;67.31;75782.97;5087329;28;19970;-78
2021/05/10 06:24:07;;;;;;;;;;;;;;;-142.75;66.92;75775.09;5083995;28;19916;-83
2021/05/10 06:26:32;;;;;;;;;;;;;;;-142.75;66.45;75759.38;5085819;28;19916;-77
2021/05/10 06:28:57;;;;;;;;;;;;;;;-142.75;66.19;75769.19;5080323;28;19921;-79
2021/05/10 06:31:23;;;;;;;;;;;;;;;-142.75;66.05;75751.50;5086818;28;19930;-79
2021/05/10 06:33:48;;;;;;;;;;;;;;;-142.75;66.05;75767.22;5064794;28;19924;-78
2021/05/10 06:36:13;;;;;;;;;;;;;;;-142.75;65.72;75781.00;5066849;28;19916;-80
2021/05/10 06:38:38;;;;;;;;;;;;;;;-142.75;66.14;75800.69;5080550;28;20003;-79
2021/05/10 06:41:03;;;;;;;;;;;;;;;-142.75;66.20;75804.63;5087796;28;19917;-77
2021/05/10 06:43:29;;;;;;;;;;;;;;;-142.75;66.51;75826.28;5079648;28;19996;-79
2021/05/10 06:45:54;;;;;;;;;;;;;;;-142.75;66.49;75836.13;5088023;28;20002;-78
2021/05/10 06:48:29;;;;;;;;;;;;;;;-142.75;66.79;75838.09;5082064;28;20471;-78
2021/05/10 06:50:55;;;;;;;;;;;;;;;-142.75;66.86;75873.50;5072298;28;19924;-79
2021/05/10 06:53:21;;;;;;;;;;;;;;;-142.75;66.90;75873.50;5090470;28;19920;-77
2021/05/10 06:55:47;;;;;;;;;;;;;;;-142.75;67.52;75869.56;5077276;28;19927;-80
2021/05/10 06:58:12;;;;;;;;;;;;;;;-142.75;67.76;75885.31;5072212;28;19924;-78
2021/05/10 07:00:38;;;;;;;;;;;;;;;-142.75;68.01;75893.19;5089886;28;20064;-78
2021/05/10 07:03:03;;;;;;;;;;;;;;;-142.75;67.80;75899.09;5067430;28;19920;-77
2021/05/10 07:05:28;;;;;;;;;;;;;;;-142.75;68.16;75906.97;5083311;28;19958;-77
2021/05/10 07:07:53;;;;;;;;;;;;;;;-142.75;68.49;75893.19;5086266;28;20400;-80
2021/05/10 07:10:19;;;;;;;;;;;;;;;-142.75;68.46;75908.94;5078409;28;20015;-78
2021/05/10 07:12:44;;;;;;;;;;;;;;;-142.75;68.49;75910.91;5070246;28;20400;-81
2021/05/10 07:15:09;;;;;;;;;;;;;;;-142.75;68.64;75934.53;5068339;28;20309;-80
2021/05/10 07:17:34;;;;;;;;;;;;;;;-142.75;69.06;75946.34;5081009;28;19916;-78
2021/05/10 07:20:00;;;;;;;;;;;;;;;-142.75;69.01;75973.88;5085278;28;19962;-79
2021/05/10 07:22:25;;;;;;;;;;;;;;;-142.75;68.73;76001.44;5066919;28;19938;-78
2021/05/10 07:24:50;;;;;;;;;;;;;;;-142.75;67.99;76030.97;5057919;28;19924;-78
2021/05/10 07:27:15;;;;;;;;;;;;;;;-142.75;67.01;76056.56;5079874;28;19920;-81
2021/05/10 07:29:40;;;;;;;;;;;;;;;-142.75;66.27;76078.19;5066639;28;20386;-79
2021/05/10 07:32:06;;;;;;;;;;;;;;;-142.75;66.73;76097.88;5077361;28;19921;-78
2021/05/10 07:34:31;;;;;;;;;;;;;;;-142.75;67.23;76111.66;5060753;28;19916;-79
2021/05/10 07:36:56;;;;;;;;;;;;;;;-142.75;67.53;76093.94;5058367;28;20302;-79
2021/05/10 07:39:22;;;;;;;;;;;;;;;-142.75;67.17;76115.59;5064396;28;20802;-78
2021/05/10 07:41:48;;;;;;;;;;;;;;;-142.75;67.23;76103.78;5075632;28;20340;-79
2021/05/10 07:44:13;;;;;;;;;;;;;;;-142.75;66.87;76093.94;5084588;28;20301;-78
2021/05/10 07:46:38;;;;;;;;;;;;;;;-142.75;67.10;76080.16;5092327;28;19916;-78
2021/05/10 07:49:04;;;;;;;;;;;;;;;-142.75;66.98;76078.19;5075013;28;19916;-77
2021/05/10 07:51:29;;;;;;;;;;;;;;;-142.75;66.79;76078.19;5091855;28;19952;-76
2021/05/10 07:53:56;;;;;;;;;;;;;;;-142.75;66.62;76048.69;5074227;28;20435;-76
2021/05/10 07:56:21;;;;;;;;;;;;;;;-142.75;66.07;75999.47;5073835;28;19923;-76
2021/05/10 07:58:47;;;;;;;;;;;;;;;-142.75;65.31;75969.94;5065278;28;20301;-75
2021/05/10 08:01:13;;;;;;;;;;;;;;;-142.75;65.08;75960.13;5092146;28;19916;-76
2021/05/10 08:03:39;;;;;;;;;;;;;;;-142.75;64.45;75938.47;5092294;28;19920;-76
2021/05/10 08:06:05;;;;;;;;;;;;;;;-142.75;64.13;75936.50;5074669;28;19924;-76
2021/05/10 08:08:30;;;;;;;;;;;;;;;-142.75;63.51;75920.75;5085501;28;20378;-76
2021/05/10 08:10:55;;;;;;;;;;;;;;;-142.75;62.56;75936.50;5073560;28;19953;-77
2021/05/10 08:13:20;;;;;;;;;;;;;;;-142.75;62.63;75950.28;5092398;28;20367;-76
2021/05/10 08:15:46;;;;;;;;;;;;;;;-142.75;62.11;75940.44;5092200;28;19919;-75
2021/05/10 08:18:12;;;;;;;;;;;;;;;-142.75;61.28;75975.84;5092602;28;20282;-77
2021/05/10 08:20:41;;;;;;;;;;;;;;;-142.75;62.49;76023.09;5074465;28;20289;-77
2021/05/10 08:23:07;;;;;;;;;;;;;;;-142.75;62.95;76060.50;5092256;28;20382;-76
2021/05/10 08:25:32;;;;;;;;;;;;;;;-142.75;63.04;76090.00;5075075;28;19923;-77
2021/05/10 08:27:57;;;;;;;;;;;;;;;-142.75;64.11;76066.41;5078762;28;19923;-77
2021/05/10 08:30:22;;;;;;;;;;;;;;;-142.75;63.63;76036.88;5081429;28;19924;-77
2021/05/10 08:32:48;;;;;;;;;;;;;;;-142.75;63.92;76023.09;5093044;28;19927;-75
2021/05/10 08:35:13;;;;;;;;;;;;;;;-142.75;63.31;76015.22;5060228;28;20007;-77
2021/05/10 08:37:38;;;;;;;;;;;;;;;-142.75;62.64;76009.31;5085957;28;19916;-77
2021/05/10 08:40:05;;;;;;;;;;;;;;;-142.75;61.58;76019.16;5093469;28;19943;-78
2021/05/10 08:42:30;;;;;;;;;;;;;;;-142.75;61.46;76019.16;5087552;28;19963;-77
2021/05/10 08:44:55;;;;;;;;;;;;;;;-142.75;62.02;75991.59;5091854;28;19920;-77
2021/05/10 08:47:21;;;;;;;;;;;;;;;-142.75;61.46;76001.44;5093523;28;19973;-78
2021/05/10 08:49:46;;;;;;;;;;;;;;;-142.75;61.25;75991.59;5074810;28;20424;-77
2021/05/10 08:52:12;;;;;;;;;;;;;;;-142.75;60.79;75973.88;5092396;28;19974;-77
2021/05/10 08:54:38;;;;;;;;;;;;;;;-142.75;59.39;75962.09;5074726;28;19916;-77
2021/05/10 08:57:04;;;;;;;;;;;;;;;-142.75;59.36;75940.44;5074945;28;19928;-77
2021/05/10 08:59:31;;;;;;;;;;;;;;;-142.75;59.11;75952.25;5087226;28;19974;-78
2021/05/10 09:01:58;;;;;;;;;;;;;;;-142.75;58.35;75952.25;5074915;28;19928;-79
2021/05/10 09:04:43;;;;;;;;;;;;;;;-142.75;58.05;75973.88;5088685;28;19921;-78
2021/05/10 09:07:14;;;;;;;;;;;;;;;-142.75;58.33;75954.22;5094811;28;19935;-79
2021/05/10 09:09:58;;;;;;;;;;;;;;;-142.75;59.00;75946.34;5073453;28;20046;-78
2021/05/10 09:12:23;;;;;;;;;;;;;;;-142.75;58.07;75948.31;5075703;28;20018;-78
2021/05/10 09:14:52;;;;;;;;;;;;;;;-142.75;56.84;75948.31;5087288;28;19955;-78
2021/05/10 09:17:18;;;;;;;;;;;;;;;-142.75;56.43;75985.69;5079933;28;20312;-78
2021/05/10 09:19:56;;;;;;;;;;;;;;;-142.75;56.80;76046.72;5083002;28;19973;-77
2021/05/10 09:22:21;;;;;;;;;;;;;;;-142.75;57.95;76066.41;5091977;28;19912;-78
2021/05/10 09:24:48;;;;;;;;;;;;;;;-142.75;57.23;76093.94;5094221;28;19916;-80
2021/05/10 09:27:19;;;;;;;;;;;;;;;-142.75;57.48;76090.00;5091046;28;19955;-78
2021/05/10 09:29:44;;;;;;;;;;;;;;;-142.75;58.30;76111.66;5072246;28;19916;-78
2021/05/10 09:32:23;;;;;;;;;;;;;;;-142.75;58.52;76119.53;5057065;28;19946;-78
2021/05/10 09:35:08;;;;;;;;;;;;;;;-142.75;59.22;76121.50;5072997;28;19916;-79
2021/05/10 09:37:33;;;;;;;;;;;;;;;-142.75;58.75;76174.66;5065976;28;20496;-78
2021/05/10 09:40:03;;;;;;;;;;;;;;;-142.75;60.02;76182.53;5092733;28;19998;-79
2021/05/10 09:42:45;;;;;;;;;;;;;;;-142.75;60.04;76160.88;5091862;28;19920;-78
2021/05/10 09:45:10;;;;;;;;;;;;;;;-142.75;60.91;76145.13;5092481;28;19920;-79
2021/05/10 09:47:36;;;;;;;;;;;;;;;-142.75;61.44;76139.22;5092504;28;19916;-78
2021/05/10 09:50:01;;;;;;;;;;;;;;;-142.75;61.25;76115.59;5093050;28;19969;-78
2021/05/10 09:52:27;;;;;;;;;;;;;;;-142.75;61.00;76082.13;5090537;28;19920;-79
2021/05/10 09:55:02;;;;;;;;;;;;;;;-142.75;60.29;76040.81;5074064;28;19919;-78
2021/05/10 09:57:27;;;;;;;;;;;;;;;-142.75;59.22;76017.19;5091548;28;19916;-78
2021/05/10 10:00:11;;;;;;;;;;;;;;;-142.75;59.39;76001.44;5073794;28;19981;-78
2021/05/10 10:02:36;;;;;;;;;;;;;;;-142.75;59.07;75999.47;5074055;28;19977;-77
2021/05/10 10:05:02;;;;;;;;;;;;;;;-142.75;58.63;76005.38;5071302;28;21322;-78
2021/05/10 10:07:27;;;;;;;;;;;;;;;-142.75;59.03;76027.03;5053169;28;19916;-77
2021/05/10 10:09:54;;;;;;;;;;;;;;;-142.75;59.57;76030.97;5053633;28;20382;-78
2021/05/10 10:12:20;;;;;;;;;;;;;;;-142.75;59.37;76034.91;5079901;28;19926;-78
2021/05/10 10:14:45;;;;;;;;;;;;;;;-142.75;60.16;76046.72;5091613;28;20381;-77
2021/05/10 10:17:11;;;;;;;;;;;;;;;-142.75;59.63;76054.59;5073445;28;19916;-77
2021/05/10 10:19:36;;;;;;;;;;;;;;;-142.75;59.92;76064.44;5072813;28;19916;-78
2021/05/10 10:22:01;;;;;;;;;;;;;;;-142.75;59.89;76062.47;5091057;28;19920;-78
2021/05/10 10:24:27;;;;;;;;;;;;;;;-142.75;60.47;76048.69;5088499;22;19954;-79
2021/05/10 10:26:53;;;;;;;;;;;;;;;-142.75;62.49;75969.94;5058839;28;19932;-79
2021/05/10 10:29:18;;;;;;;;;;;;;;;-142.75;58.31;75877.44;5061446;28;20361;-80
2021/05/10 10:31:45;;;;;;;;;;;;;;;-142.75;58.01;75800.69;5063364;28;19996;-82
2021/05/10 10:34:10;;;;;;;;;;;;;;;-142.75;57.05;75765.25;5058766;28;20382;-79
2021/05/10 10:36:45;;;;;;;;;;;;;;;-142.75;57.15;75680.63;5041260;28;19971;-79
2021/05/10 10:39:22;;;;;;;;;;;;;;;-142.75;54.38;75674.72;5045029;28;19931;-80
2021/05/10 10:42:01;;;;;;;;;;;;;;;-142.75;56.33;75660.97;5046469;28;19925;-78
2021/05/10 10:44:29;;;;;;;;;;;;;;;-142.75;52.27;75676.69;5043785;28;19921;-81
2021/05/10 10:46:54;;;;;;;;;;;;;;;-142.75;55.07;75666.88;5043539;28;19917;-81
2021/05/10 10:49:31;;;;;;;;;;;;;;;-142.75;54.55;75714.09;5042275;28;20008;-78
2021/05/10 10:51:57;;;;;;;;;;;;;;;-142.75;56.26;75592.09;5041789;28;19927;-79
2021/05/10 10:54:24;;;;;;;;;;;;;;;-142.75;50.71;75536.97;5040917;28;19917;-79
2021/05/10 10:56:52;;;;;;;;;;;;;;;-142.75;49.61;75623.56;5036381;28;19920;-78
2021/05/10 10:59:27;;;;;;;;;;;;;;;-142.75;50.67;75586.19;5042981;28;19964;-78
2021/05/10 11:01:53;;;;;;;;;;;;;;;-142.75;54.17;75542.88;5033990;28;20025;-77
2021/05/10 11:04:24;;;;;;;;;;;;;;;-142.75;48.06;75503.53;5039691;28;20375;-78
2021/05/10 11:06:50;;;;;;;;;;;;;;;-142.75;49.73;75521.22;5037687;28;20004;-78
2021/05/10 11:09:15;;;;;;;;;;;;;;;-142.75;51.71;75430.72;5045608;28;19960;-78
2021/05/10 11:11:41;;;;;;;;;;;;;;;-142.75;47.15;75420.88;5039344;28;19932;-79
2021/05/10 11:14:10;;;;;;;;;;;;;;;-142.75;48.31;75452.34;5039355;28;19923;-78
2021/05/10 11:16:41;;;;;;;;;;;;;;;-142.75;48.24;75456.28;5043742;28;20008;-78
2021/05/10 11:19:26;;;;;;;;;;;;;;;-142.75;49.34;75568.47;5047058;28;20402;-78
2021/05/10 11:21:51;;;;;;;;;;;;;;;-142.75;46.68;75586.19;5049111;28;19921;-79
2021/05/10 11:24:23;;;;;;;;;;;;;;;-142.75;47.09;75481.88;5046022;28;20272;-77
2021/05/10 11:26:55;;;;;;;;;;;;;;;-142.75;45.08;75403.16;5047748;28;20302;-80
2021/05/10 11:29:24;;;;;;;;;;;;;;;-142.75;44.52;75352.00;5038984;28;19928;-81
2021/05/10 11:31:49;;;;;;;;;;;;;;;-142.75;44.55;75414.97;5044113;28;19921;-80
2021/05/10 11:34:17;;;;;;;;;;;;;;;-142.75;43.66;75330.34;5049252;28;20353;-79
2021/05/10 11:36:48;;;;;;;;;;;;;;;-142.75;43.64;75320.50;5040084;28;20378;-79
2021/05/10 11:39:16;;;;;;;;;;;;;;;-142.75;44.13;75312.63;5046834;28;19917;-78
2021/05/10 11:41:42;;;;;;;;;;;;;;;-142.75;43.88;75294.94;5041386;28;19927;-80
2021/05/10 11:44:09;;;;;;;;;;;;;;;-142.75;42.45;75387.41;5047439;28;19921;-79
2021/05/10 11:46:35;;;;;;;;;;;;;;;-142.75;44.63;75517.28;5045222;28;19918;-78
2021/05/10 11:49:01;;;;;;;;;;;;;;;-142.75;45.72;75601.91;5040579;28;20422;-81
2021/05/10 11:51:26;;;;;;;;;;;;;;;-142.75;46.61;75637.34;5042373;28;19963;-78
2021/05/10 11:54:02;;;;;;;;;;;;;;;-142.75;47.00;75723.94;5043008;28;19947;-81
2021/05/10 11:56:28;;;;;;;;;;;;;;;-142.75;46.76;75733.78;5042267;28;19917;-81
2021/05/10 11:59:00;;;;;;;;;;;;;;;-142.75;47.46;75769.19;5044193;28;19935;-79
2021/05/10 12:01:32;;;;;;;;;;;;;;;-142.75;47.99;75806.59;5043624;28;19990;-80
2021/05/10 12:03:57;;;;;;;;;;;;;;;-142.75;47.95;75826.28;5047329;28;20016;-81
2021/05/10 12:06:32;;;;;;;;;;;;;;;-142.75;49.08;75836.13;5045677;28;19952;-78
2021/05/10 12:08:59;;;;;;;;;;;;;;;-142.75;49.15;75792.81;5043484;28;19963;-79
2021/05/10 12:11:25;;;;;;;;;;;;;;;-142.75;48.79;75751.50;5043948;28;19976;-77
2021/05/10 12:13:50;;;;;;;;;;;;;;;-142.75;47.77;75684.56;5043232;28;19951;-77
2021/05/10 12:16:16;;;;;;;;;;;;;;;-142.75;48.66;75721.97;5042454;28;19921;-78
2021/05/10 12:18:54;;;;;;;;;;;;;;;-142.75;47.65;75723.94;5042154;28;19923;-79
2021/05/10 12:21:19;;;;;;;;;;;;;;;-142.75;48.99;75737.72;5068066;28;19986;-79
2021/05/10 12:23:44;;;;;;;;;;;;;;;-142.75;48.66;75657.03;5046047;28;19999;-77
2021/05/10 12:26:11;;;;;;;;;;;;;;;-142.75;47.44;75631.44;5046681;28;19920;-78
2021/05/10 12:28:39;;;;;;;;;;;;;;;-142.75;47.74;75641.28;5045147;28;19920;-79
2021/05/10 12:31:05;;;;;;;;;;;;;;;-142.75;46.95;75629.47;5048018;28;19917;-78
2021/05/10 12:33:30;;;;;;;;;;;;;;;-142.75;45.05;75655.06;5045023;28;19920;-80